< < Back
Terminal Aerodrome Forecast


Current Version              Previous Versions:   1  2  3  4  5  6  7  8  9  

Terminal Aerodrome Forecast

837
FTUS42 KTAE 290533
TAFTLH
TAF
KTLH 290533Z 2906/3006 VRB03KT P6SM SCT250
     FM291500 10006KT P6SM FEW050=



Latest METAR

419
SAUS80 KWBC 291600
MTRTLH
METAR KTLH 291553Z 09007KT 10SM SCT035 SCT250 29/16 A3017 RMK AO2 SLP216
T02940156 $


USA.gov is the U.S. government's official web portal to all federal, state and local government web resources and services.